MD228 Weather Reports


Display with metric or nautical units.
time (UTC)temp
F
wind
direction
speed
MPH
gust
MPH
rain 1hr
in
rain 24hr
in
rain mn
in
humidity
%
barometer
mb
20191016163206 57 201 8.0 18.0 0.00 0.54 0.54 83 1009.1
20191016161703 57 246 8.0 20.0 0.00 0.54 0.54 81 1009.1
20191016160246 58 236 6.0 16.0 0.00 0.54 0.54 79 1008.9
20191016154624 58 215 7.0 16.0 0.00 0.54 0.54 78 1008.7
20191016153136 59 262 4.0 14.0 0.00 0.54 0.54 77 1008.8
20191016151647 59 221 6.0 13.0 0.00 0.54 0.54 76 1008.8
20191016150205 59 257 5.0 16.0 0.00 0.54 0.54 76 1008.8
20191016144653 59 245 3.0 11.0 0.00 0.54 0.54 78 1008.8
20191016143145 59 254 8.0 15.0 0.00 0.54 0.54 78 1008.8
20191016141618 59 225 3.0 11.0 0.00 0.54 0.54 79 1008.8
20191016140125 59 238 5.0 16.0 0.00 0.54 0.54 79 1008.9
20191016134559 59 222 8.0 16.0 0.00 0.54 0.54 79 1008.9
20191016133110 59 256 4.0 11.0 0.00 0.54 0.54 81 1008.9
20191016131605 59 263 3.0 10.0 0.00 0.54 0.54 80 1008.9
20191016130131 59 261 2.0 13.0 0.00 0.54 0.54 81 1008.9
20191016124637 59 254 8.0 15.0 0.00 0.54 0.54 83 1009.0
20191016123129 58 242 5.0 15.0 0.00 0.54 0.54 86 1009.0
20191016121644 57 265 13.0 20.0 0.00 0.54 0.54 87 1008.9
20191016120106 56 249 9.0 19.0 0.00 0.54 0.54 90 1009.0
20191016114717 56 269 4.0 13.0 0.00 0.54 0.54 93 1008.9
20191016113146 55 257 8.0 17.0 0.00 0.54 0.54 93 1009.0
20191016111608 55 271 7.0 13.0 0.00 0.54 0.54 94 1009.1
20191016110148 54 250 11.0 20.0 0.00 0.54 0.54 94 1009.1
20191016104601 54 253 11.0 18.0 0.00 0.54 0.54 95 1009.1
20191016103126 54 240 7.0 15.0 0.01 0.54 0.54 95 1009.2
20191016101626 53 251 4.0 14.0 0.02 0.54 0.54 95 1009.0
20191016100055 53 249 7.0 13.0 0.02 0.54 0.54 95 1009.0
20191016094619 53 242 7.0 15.0 0.03 0.54 0.54 94 1009.0
20191016093056 52 254 8.0 18.0 0.02 0.54 0.54 94 1009.0
20191016091633 52 220 10.0 18.0 0.02 0.53 0.53 95 1009.0
20191016090132 52 235 9.0 19.0 0.01 0.52 0.52 94 1008.7
20191016084605 53 247 12.0 18.0 0.00 0.51 0.51 95 1008.7
20191016083113 53 247 10.0 18.0 0.00 0.51 0.51 95 1008.7
20191016081540 53 257 8.0 16.0 0.01 0.51 0.51 95 1008.6
20191016080049 53 223 6.0 14.0 0.02 0.51 0.51 95 1008.6
20191016074643 52 250 9.0 12.0 0.02 0.51 0.51 95 1008.5
20191016073033 52 249 7.0 13.0 0.04 0.51 0.51 95 1008.5
20191016071537 52 252 6.0 12.0 0.05 0.50 0.50 94 1008.3
20191016070038 52 263 9.0 15.0 0.04 0.50 0.50 94 1008.3
20191016064615 53 257 8.0 14.0 0.03 0.49 0.49 94 1008.2
20191016063035 53 249 10.0 19.0 0.02 0.47 0.47 95 1007.9
20191016061534 53 269 8.0 20.0 0.01 0.46 0.46 94 1007.6
20191016060011 53 269 9.0 19.0 0.02 0.46 0.46 94 1007.4
20191016054514 53 242 9.0 15.0 0.03 0.46 0.46 94 1007.3
20191016053008 54 278 9.0 20.0 0.05 0.45 0.45 95 1007.1
20191016051500 54 254 9.0 15.0 0.05 0.45 0.45 94 1007.0
20191016050244 55 253 12.0 22.0 0.04 0.44 0.44 94 1006.9
20191016044710 55 262 9.0 14.0 0.03 0.43 0.43 95 1006.7
20191016043240 55 251 6.0 17.0 0.01 0.40 0.40 94 1006.7
20191016041708 55 246 6.0 12.0 0.02 0.40 0.40 94 1006.4
20191016040134 55 245 5.0 13.0 0.02 0.40 0.40 94 1006.4
20191016034717 55 242 6.0 16.0 0.03 0.39 0.39 94 1006.2
20191016033210 56 229 6.0 13.0 0.04 0.39 0.39 94 1006.2
20191016031704 56 246 7.0 13.0 0.04 0.39 0.39 94 1006.2
20191016030137 56 291 9.0 15.0 0.02 0.37 0.37 94 1005.8
20191016024651 56 257 6.0 16.0 0.02 0.36 0.36 94 1006.2
20191016023113 56 239 8.0 17.0 0.01 0.35 0.35 94 1006.2
20191016021607 57 279 6.0 11.0 0.01 0.35 0.35 94 1006.2
20191016020121 57 299 8.0 12.0 0.02 0.35 0.35 94 1006.0
20191016014558 57 296 6.0 15.0 0.02 0.34 0.34 94 1005.9
20191016013105 57 299 8.0 17.0 0.04 0.34 0.34 94 1005.8
20191016011613 57 286 5.0 12.0 0.06 0.34 0.34 94 1005.5
20191016010107 57 270 6.0 11.0 0.08 0.32 0.32 94 1005.4
20191016004551 58 290 7.0 15.0 0.10 0.31 0.31 94 1005.3
20191016003114 58 270 7.0 11.0 0.15 0.30 0.30 94 1005.3
20191016001547 58 258 6.0 13.0 0.18 0.28 0.28 94 1005.4
20191016000106 58 251 4.0 10.0 0.15 0.24 0.24 93 1005.5
20191015234540 58 291 8.0 12.0 0.15 0.20 0.20 93 1005.3
20191015233037 58 263 7.0 15.0 0.11 0.14 0.14 93 1005.2
20191015231602 58 273 6.0 10.0 0.09 0.09 0.09 92 1005.0
20191015230038 58 269 7.0 13.0 0.09 0.09 0.09 91 1005.0
20191015224600 59 246 6.0 13.0 0.06 0.06 0.06 90 1005.2
20191015223040 59 278 12.0 17.0 0.03 0.03 0.03 88 1004.9
20191015221535 61 272 13.0 24.0 0.00 0.00 0.00 87 1004.7
20191015220153 62 312 4.0 9.0 0.00 0.00 0.00 88 1004.1
20191015214627 62 317 0.0 0.0 0.00 0.00 0.00 88 1003.4
20191015213156 62 317 0.0 2.0 0.00 0.00 0.00 88 1003.5
20191015211713 62 317 0.0 0.0 0.00 0.00 0.00 87 1003.7
20191015210119 62 317 0.0 0.0 0.00 0.00 0.00 87 1003.6
20191015204741 62 317 0.0 0.0 0.00 0.00 0.00 88 1003.6
20191015203248 62 317 0.0 0.0 0.00 0.00 0.00 88 1003.7
20191015201701 62 317 0.0 0.0 0.00 0.00 0.00 88 1003.8
20191015200144 62 317 0.0 0.0 0.00 0.00 0.00 88 1004.0
20191015194639 62 317 0.0 0.0 0.00 0.00 0.00 88 1004.1
20191015191646 62 317 0.0 3.0 0.00 0.00 0.00 87 1004.3
20191015190214 62 317 0.0 3.0 0.00 0.00 0.00 87 1004.3
20191015184632 63 317 0.0 3.0 0.00 0.00 0.00 86 1004.5
20191015183140 63 317 0.0 3.0 0.00 0.00 0.00 86 1004.3
20191015181657 63 317 2.0 4.0 0.00 0.00 0.00 86 1004.4
20191015180133 64 317 0.0 4.0 0.00 0.00 0.00 86 1004.5
20191015174612 64 317 0.0 4.0 0.00 0.00 0.00 85 1004.2
20191015173142 65 317 1.0 4.0 0.00 0.00 0.00 85 1004.2
20191015171625 65 317 2.0 7.0 0.00 0.00 0.00 84 1004.2
20191015170142 65 317 3.0 7.0 0.00 0.00 0.00 83 1004.0
20191015164621 66 317 0.0 2.0 0.00 0.00 0.00 83 1004.1